sensor_id;sensor_type;location;lat;lon;timestamp;P1;durP1;ratioP1;P2;durP2;ratioP2
76966;SDS011;65904;52.278;20.972;2023-03-13T00:00:53;9.38;;;4.60;;
76966;SDS011;65904;52.278;20.972;2023-03-13T00:03:42;11.95;;;5.70;;
76966;SDS011;65904;52.278;20.972;2023-03-13T00:06:29;11.02;;;5.05;;
76966;SDS011;65904;52.278;20.972;2023-03-13T00:09:16;11.23;;;4.70;;
76966;SDS011;65904;52.278;20.972;2023-03-13T00:12:03;8.38;;;4.72;;
76966;SDS011;65904;52.278;20.972;2023-03-13T00:14:49;13.02;;;4.93;;
76966;SDS011;65904;52.278;20.972;2023-03-13T00:17:35;10.18;;;5.28;;
76966;SDS011;65904;52.278;20.972;2023-03-13T00:20:22;9.20;;;5.55;;
76966;SDS011;65904;52.278;20.972;2023-03-13T00:25:55;11.05;;;5.20;;
76966;SDS011;65904;52.278;20.972;2023-03-13T00:28:42;12.13;;;5.22;;
76966;SDS011;65904;52.278;20.972;2023-03-13T00:31:30;11.70;;;5.75;;
76966;SDS011;65904;52.278;20.972;2023-03-13T00:34:17;11.38;;;5.68;;
76966;SDS011;65904;52.278;20.972;2023-03-13T00:37:04;10.05;;;5.20;;
76966;SDS011;65904;52.278;20.972;2023-03-13T00:42:37;10.68;;;5.05;;
76966;SDS011;65904;52.278;20.972;2023-03-13T00:45:24;14.23;;;5.28;;
76966;SDS011;65904;52.278;20.972;2023-03-13T00:48:10;10.90;;;4.95;;
76966;SDS011;65904;52.278;20.972;2023-03-13T00:50:56;6.63;;;4.25;;
76966;SDS011;65904;52.278;20.972;2023-03-13T00:53:44;8.52;;;4.43;;
76966;SDS011;65904;52.278;20.972;2023-03-13T00:56:31;11.55;;;4.78;;
76966;SDS011;65904;52.278;20.972;2023-03-13T00:59:17;6.80;;;4.15;;
76966;SDS011;65904;52.278;20.972;2023-03-13T01:02:03;9.07;;;4.65;;
76966;SDS011;65904;52.278;20.972;2023-03-13T01:04:50;8.50;;;4.40;;
76966;SDS011;65904;52.278;20.972;2023-03-13T01:07:40;5.65;;;3.65;;
76966;SDS011;65904;52.278;20.972;2023-03-13T01:10:28;8.07;;;3.97;;
76966;SDS011;65904;52.278;20.972;2023-03-13T01:13:14;8.43;;;4.38;;
76966;SDS011;65904;52.278;20.972;2023-03-13T01:16:01;5.68;;;3.85;;
76966;SDS011;65904;52.278;20.972;2023-03-13T01:18:49;7.00;;;3.80;;
76966;SDS011;65904;52.278;20.972;2023-03-13T01:21:36;9.75;;;4.32;;
76966;SDS011;65904;52.278;20.972;2023-03-13T01:24:23;8.45;;;3.90;;
76966;SDS011;65904;52.278;20.972;2023-03-13T01:27:11;5.93;;;3.67;;
76966;SDS011;65904;52.278;20.972;2023-03-13T01:29:57;6.88;;;4.05;;
76966;SDS011;65904;52.278;20.972;2023-03-13T01:32:43;8.63;;;3.90;;
76966;SDS011;65904;52.278;20.972;2023-03-13T01:35:30;7.20;;;3.55;;
76966;SDS011;65904;52.278;20.972;2023-03-13T01:38:16;6.55;;;3.17;;
76966;SDS011;65904;52.278;20.972;2023-03-13T01:41:03;7.40;;;3.65;;
76966;SDS011;65904;52.278;20.972;2023-03-13T01:43:52;7.05;;;3.53;;
76966;SDS011;65904;52.278;20.972;2023-03-13T01:46:40;8.60;;;4.63;;
76966;SDS011;65904;52.278;20.972;2023-03-13T01:49:46;6.30;;;4.68;;
76966;SDS011;65904;52.278;20.972;2023-03-13T01:52:52;6.07;;;3.47;;
76966;SDS011;65904;52.278;20.972;2023-03-13T01:55:43;5.25;;;3.75;;
76966;SDS011;65904;52.278;20.972;2023-03-13T01:58:30;6.25;;;4.32;;
76966;SDS011;65904;52.278;20.972;2023-03-13T02:01:17;8.10;;;2.95;;
76966;SDS011;65904;52.278;20.972;2023-03-13T02:04:05;7.47;;;3.15;;
76966;SDS011;65904;52.278;20.972;2023-03-13T02:06:53;8.38;;;3.65;;
76966;SDS011;65904;52.278;20.972;2023-03-13T02:09:44;4.90;;;3.60;;
76966;SDS011;65904;52.278;20.972;2023-03-13T02:12:36;6.65;;;3.70;;
76966;SDS011;65904;52.278;20.972;2023-03-13T02:15:25;6.03;;;3.72;;
76966;SDS011;65904;52.278;20.972;2023-03-13T02:18:14;5.75;;;4.00;;
76966;SDS011;65904;52.278;20.972;2023-03-13T02:21:01;8.18;;;4.10;;
76966;SDS011;65904;52.278;20.972;2023-03-13T02:26:44;5.88;;;3.65;;
76966;SDS011;65904;52.278;20.972;2023-03-13T02:29:31;6.78;;;4.10;;
76966;SDS011;65904;52.278;20.972;2023-03-13T02:32:17;9.80;;;4.68;;
76966;SDS011;65904;52.278;20.972;2023-03-13T02:35:05;10.00;;;4.45;;
76966;SDS011;65904;52.278;20.972;2023-03-13T02:37:54;8.13;;;4.28;;
76966;SDS011;65904;52.278;20.972;2023-03-13T02:40:45;7.78;;;4.53;;
76966;SDS011;65904;52.278;20.972;2023-03-13T02:43:36;6.88;;;4.57;;
76966;SDS011;65904;52.278;20.972;2023-03-13T02:46:23;11.10;;;4.25;;
76966;SDS011;65904;52.278;20.972;2023-03-13T02:49:17;9.30;;;4.70;;
76966;SDS011;65904;52.278;20.972;2023-03-13T02:52:09;10.13;;;5.30;;
76966;SDS011;65904;52.278;20.972;2023-03-13T02:55:00;7.95;;;4.35;;
76966;SDS011;65904;52.278;20.972;2023-03-13T02:57:50;7.68;;;4.68;;
76966;SDS011;65904;52.278;20.972;2023-03-13T03:00:38;8.55;;;4.45;;
76966;SDS011;65904;52.278;20.972;2023-03-13T03:03:24;9.30;;;5.28;;
76966;SDS011;65904;52.278;20.972;2023-03-13T03:06:10;6.85;;;4.32;;
76966;SDS011;65904;52.278;20.972;2023-03-13T03:08:57;10.15;;;5.18;;
76966;SDS011;65904;52.278;20.972;2023-03-13T03:11:45;8.98;;;4.85;;
76966;SDS011;65904;52.278;20.972;2023-03-13T03:14:33;10.82;;;5.78;;
76966;SDS011;65904;52.278;20.972;2023-03-13T03:17:21;9.15;;;4.68;;
76966;SDS011;65904;52.278;20.972;2023-03-13T03:20:07;10.50;;;4.28;;
76966;SDS011;65904;52.278;20.972;2023-03-13T03:22:56;8.48;;;4.70;;
76966;SDS011;65904;52.278;20.972;2023-03-13T03:25:44;9.02;;;5.30;;
76966;SDS011;65904;52.278;20.972;2023-03-13T03:28:31;8.07;;;4.40;;
76966;SDS011;65904;52.278;20.972;2023-03-13T03:31:19;7.10;;;4.55;;
76966;SDS011;65904;52.278;20.972;2023-03-13T03:34:07;10.88;;;5.63;;
76966;SDS011;65904;52.278;20.972;2023-03-13T03:36:54;7.93;;;4.50;;
76966;SDS011;65904;52.278;20.972;2023-03-13T03:39:40;9.07;;;5.18;;
76966;SDS011;65904;52.278;20.972;2023-03-13T03:42:26;7.78;;;4.82;;
76966;SDS011;65904;52.278;20.972;2023-03-13T03:45:12;10.23;;;5.30;;
76966;SDS011;65904;52.278;20.972;2023-03-13T03:47:58;7.68;;;4.80;;
76966;SDS011;65904;52.278;20.972;2023-03-13T03:50:47;8.85;;;5.03;;
76966;SDS011;65904;52.278;20.972;2023-03-13T03:53:34;14.25;;;5.57;;
76966;SDS011;65904;52.278;20.972;2023-03-13T03:56:20;7.72;;;4.75;;
76966;SDS011;65904;52.278;20.972;2023-03-13T03:59:11;7.75;;;4.38;;
76966;SDS011;65904;52.278;20.972;2023-03-13T04:02:05;10.52;;;5.25;;
76966;SDS011;65904;52.278;20.972;2023-03-13T04:04:52;12.50;;;5.72;;
76966;SDS011;65904;52.278;20.972;2023-03-13T04:07:45;9.73;;;4.95;;
76966;SDS011;65904;52.278;20.972;2023-03-13T04:10:31;7.35;;;4.82;;
76966;SDS011;65904;52.278;20.972;2023-03-13T04:13:18;10.98;;;5.63;;
76966;SDS011;65904;52.278;20.972;2023-03-13T04:16:07;12.00;;;6.15;;
76966;SDS011;65904;52.278;20.972;2023-03-13T04:18:55;9.10;;;5.78;;
76966;SDS011;65904;52.278;20.972;2023-03-13T04:21:43;11.82;;;5.78;;
76966;SDS011;65904;52.278;20.972;2023-03-13T04:24:35;11.15;;;6.35;;
76966;SDS011;65904;52.278;20.972;2023-03-13T04:27:20;8.15;;;5.70;;
76966;SDS011;65904;52.278;20.972;2023-03-13T04:30:09;9.13;;;5.15;;
76966;SDS011;65904;52.278;20.972;2023-03-13T04:33:28;14.40;;;6.10;;
76966;SDS011;65904;52.278;20.972;2023-03-13T04:36:27;10.50;;;5.38;;
76966;SDS011;65904;52.278;20.972;2023-03-13T04:39:24;13.93;;;6.40;;
76966;SDS011;65904;52.278;20.972;2023-03-13T04:42:44;9.90;;;5.43;;
76966;SDS011;65904;52.278;20.972;2023-03-13T04:45:40;10.75;;;5.28;;
76966;SDS011;65904;52.278;20.972;2023-03-13T04:48:49;10.63;;;6.15;;
76966;SDS011;65904;52.278;20.972;2023-03-13T04:51:47;12.60;;;6.18;;
76966;SDS011;65904;52.278;20.972;2023-03-13T04:54:43;22.48;;;11.63;;
76966;SDS011;65904;52.278;20.972;2023-03-13T04:57:54;10.82;;;5.70;;
76966;SDS011;65904;52.278;20.972;2023-03-13T05:00:51;11.57;;;5.57;;
76966;SDS011;65904;52.278;20.972;2023-03-13T05:03:59;11.60;;;6.57;;
76966;SDS011;65904;52.278;20.972;2023-03-13T05:06:57;12.05;;;6.55;;
76966;SDS011;65904;52.278;20.972;2023-03-13T05:10:01;10.52;;;6.18;;
76966;SDS011;65904;52.278;20.972;2023-03-13T05:13:06;13.98;;;6.88;;
76966;SDS011;65904;52.278;20.972;2023-03-13T05:16:02;8.40;;;5.40;;
76966;SDS011;65904;52.278;20.972;2023-03-13T05:19:05;15.10;;;6.60;;
76966;SDS011;65904;52.278;20.972;2023-03-13T05:22:09;11.30;;;6.32;;
76966;SDS011;65904;52.278;20.972;2023-03-13T05:25:14;13.82;;;6.88;;
76966;SDS011;65904;52.278;20.972;2023-03-13T05:28:31;9.45;;;6.80;;
76966;SDS011;65904;52.278;20.972;2023-03-13T05:31:32;11.85;;;7.28;;
76966;SDS011;65904;52.278;20.972;2023-03-13T05:34:54;12.43;;;6.47;;
76966;SDS011;65904;52.278;20.972;2023-03-13T05:38:01;15.35;;;6.97;;
76966;SDS011;65904;52.278;20.972;2023-03-13T05:41:15;11.02;;;7.70;;
76966;SDS011;65904;52.278;20.972;2023-03-13T05:44:03;28.63;;;15.70;;
76966;SDS011;65904;52.278;20.972;2023-03-13T05:47:08;12.88;;;7.00;;
76966;SDS011;65904;52.278;20.972;2023-03-13T05:50:24;13.20;;;7.30;;
76966;SDS011;65904;52.278;20.972;2023-03-13T05:53:13;12.75;;;7.03;;
76966;SDS011;65904;52.278;20.972;2023-03-13T05:56:19;11.98;;;6.70;;
76966;SDS011;65904;52.278;20.972;2023-03-13T05:59:08;16.77;;;8.77;;
76966;SDS011;65904;52.278;20.972;2023-03-13T06:02:17;14.70;;;8.10;;
76966;SDS011;65904;52.278;20.972;2023-03-13T06:05:05;13.68;;;7.25;;
76966;SDS011;65904;52.278;20.972;2023-03-13T06:10:39;14.98;;;8.48;;
76966;SDS011;65904;52.278;20.972;2023-03-13T06:13:26;16.33;;;8.38;;
76966;SDS011;65904;52.278;20.972;2023-03-13T06:16:17;15.57;;;9.05;;
76966;SDS011;65904;52.278;20.972;2023-03-13T06:19:05;13.30;;;8.13;;
76966;SDS011;65904;52.278;20.972;2023-03-13T06:21:51;17.63;;;8.95;;
76966;SDS011;65904;52.278;20.972;2023-03-13T06:24:38;12.18;;;6.65;;
76966;SDS011;65904;52.278;20.972;2023-03-13T06:27:24;15.48;;;8.75;;
76966;SDS011;65904;52.278;20.972;2023-03-13T06:30:10;17.20;;;8.65;;
76966;SDS011;65904;52.278;20.972;2023-03-13T06:32:58;17.00;;;8.75;;
76966;SDS011;65904;52.278;20.972;2023-03-13T06:35:45;15.63;;;10.35;;
76966;SDS011;65904;52.278;20.972;2023-03-13T06:38:31;15.88;;;8.63;;
76966;SDS011;65904;52.278;20.972;2023-03-13T06:41:18;16.15;;;8.55;;
76966;SDS011;65904;52.278;20.972;2023-03-13T06:44:04;15.95;;;8.60;;
76966;SDS011;65904;52.278;20.972;2023-03-13T06:46:50;15.27;;;8.75;;
76966;SDS011;65904;52.278;20.972;2023-03-13T06:49:38;17.98;;;8.88;;
76966;SDS011;65904;52.278;20.972;2023-03-13T06:52:24;17.45;;;9.35;;
76966;SDS011;65904;52.278;20.972;2023-03-13T06:55:11;15.80;;;9.05;;
76966;SDS011;65904;52.278;20.972;2023-03-13T06:57:57;25.67;;;16.17;;
76966;SDS011;65904;52.278;20.972;2023-03-13T07:00:44;21.85;;;10.95;;
76966;SDS011;65904;52.278;20.972;2023-03-13T07:03:30;19.95;;;10.73;;
76966;SDS011;65904;52.278;20.972;2023-03-13T07:06:18;18.13;;;10.77;;
76966;SDS011;65904;52.278;20.972;2023-03-13T07:09:04;19.30;;;10.55;;
76966;SDS011;65904;52.278;20.972;2023-03-13T07:11:50;16.27;;;8.77;;
76966;SDS011;65904;52.278;20.972;2023-03-13T07:14:37;17.00;;;9.02;;
76966;SDS011;65904;52.278;20.972;2023-03-13T07:17:23;16.10;;;9.32;;
76966;SDS011;65904;52.278;20.972;2023-03-13T07:20:10;19.00;;;9.43;;
76966;SDS011;65904;52.278;20.972;2023-03-13T07:22:58;16.42;;;8.75;;
76966;SDS011;65904;52.278;20.972;2023-03-13T07:25:50;14.02;;;8.50;;
76966;SDS011;65904;52.278;20.972;2023-03-13T07:28:37;16.65;;;9.13;;
76966;SDS011;65904;52.278;20.972;2023-03-13T07:31:24;19.65;;;8.02;;
76966;SDS011;65904;52.278;20.972;2023-03-13T07:34:10;12.95;;;8.70;;
76966;SDS011;65904;52.278;20.972;2023-03-13T07:36:56;15.20;;;8.43;;
76966;SDS011;65904;52.278;20.972;2023-03-13T07:39:43;13.65;;;7.95;;
76966;SDS011;65904;52.278;20.972;2023-03-13T07:42:30;14.90;;;8.40;;
76966;SDS011;65904;52.278;20.972;2023-03-13T07:45:16;16.40;;;7.85;;
76966;SDS011;65904;52.278;20.972;2023-03-13T07:48:02;14.73;;;8.13;;
76966;SDS011;65904;52.278;20.972;2023-03-13T07:50:49;12.23;;;7.32;;
76966;SDS011;65904;52.278;20.972;2023-03-13T07:53:35;11.40;;;7.15;;
76966;SDS011;65904;52.278;20.972;2023-03-13T07:56:22;13.20;;;7.60;;
76966;SDS011;65904;52.278;20.972;2023-03-13T07:59:09;12.38;;;7.95;;
76966;SDS011;65904;52.278;20.972;2023-03-13T08:01:55;14.00;;;7.60;;
76966;SDS011;65904;52.278;20.972;2023-03-13T08:04:41;13.93;;;8.05;;
76966;SDS011;65904;52.278;20.972;2023-03-13T08:07:27;12.52;;;8.32;;
76966;SDS011;65904;52.278;20.972;2023-03-13T08:10:14;15.00;;;7.93;;
76966;SDS011;65904;52.278;20.972;2023-03-13T08:43:41;10.18;;;6.22;;
76966;SDS011;65904;52.278;20.972;2023-03-13T08:46:29;11.48;;;7.32;;
76966;SDS011;65904;52.278;20.972;2023-03-13T08:49:16;14.85;;;7.55;;
76966;SDS011;65904;52.278;20.972;2023-03-13T08:52:03;12.45;;;6.75;;
76966;SDS011;65904;52.278;20.972;2023-03-13T08:54:50;10.48;;;6.95;;
76966;SDS011;65904;52.278;20.972;2023-03-13T08:57:36;9.90;;;6.63;;
76966;SDS011;65904;52.278;20.972;2023-03-13T09:00:22;13.55;;;8.35;;
76966;SDS011;65904;52.278;20.972;2023-03-13T09:03:10;12.07;;;7.60;;
76966;SDS011;65904;52.278;20.972;2023-03-13T09:05:56;11.23;;;6.60;;
76966;SDS011;65904;52.278;20.972;2023-03-13T09:08:43;14.70;;;8.02;;
76966;SDS011;65904;52.278;20.972;2023-03-13T09:11:31;14.38;;;7.35;;
76966;SDS011;65904;52.278;20.972;2023-03-13T09:14:17;10.25;;;6.07;;
76966;SDS011;65904;52.278;20.972;2023-03-13T09:17:03;18.10;;;9.52;;
76966;SDS011;65904;52.278;20.972;2023-03-13T09:19:50;9.20;;;6.63;;
76966;SDS011;65904;52.278;20.972;2023-03-13T09:22:37;12.63;;;7.07;;
76966;SDS011;65904;52.278;20.972;2023-03-13T09:25:23;14.05;;;7.28;;
76966;SDS011;65904;52.278;20.972;2023-03-13T09:30:55;15.13;;;6.88;;
76966;SDS011;65904;52.278;20.972;2023-03-13T09:33:52;12.48;;;5.90;;
76966;SDS011;65904;52.278;20.972;2023-03-13T09:36:39;15.15;;;6.65;;
76966;SDS011;65904;52.278;20.972;2023-03-13T09:39:25;11.88;;;6.28;;
76966;SDS011;65904;52.278;20.972;2023-03-13T09:42:12;12.57;;;5.53;;
76966;SDS011;65904;52.278;20.972;2023-03-13T09:47:51;9.50;;;4.45;;
76966;SDS011;65904;52.278;20.972;2023-03-13T09:50:42;7.90;;;5.05;;
76966;SDS011;65904;52.278;20.972;2023-03-13T09:53:35;8.85;;;4.63;;
76966;SDS011;65904;52.278;20.972;2023-03-13T09:56:28;7.85;;;4.88;;
76966;SDS011;65904;52.278;20.972;2023-03-13T09:59:18;9.40;;;4.28;;
76966;SDS011;65904;52.278;20.972;2023-03-13T10:02:21;11.32;;;4.45;;
76966;SDS011;65904;52.278;20.972;2023-03-13T10:05:13;7.85;;;4.38;;
76966;SDS011;65904;52.278;20.972;2023-03-13T10:08:09;8.18;;;4.65;;
76966;SDS011;65904;52.278;20.972;2023-03-13T10:11:02;9.95;;;5.05;;
76966;SDS011;65904;52.278;20.972;2023-03-13T10:13:52;10.27;;;4.22;;
76966;SDS011;65904;52.278;20.972;2023-03-13T10:16:45;9.07;;;3.78;;
76966;SDS011;65904;52.278;20.972;2023-03-13T10:19:37;10.07;;;3.80;;
76966;SDS011;65904;52.278;20.972;2023-03-13T10:22:27;9.70;;;3.83;;
76966;SDS011;65904;52.278;20.972;2023-03-13T10:25:18;9.75;;;3.58;;
76966;SDS011;65904;52.278;20.972;2023-03-13T10:28:14;11.10;;;4.50;;
76966;SDS011;65904;52.278;20.972;2023-03-13T10:31:04;9.20;;;3.85;;
76966;SDS011;65904;52.278;20.972;2023-03-13T10:34:04;12.38;;;4.13;;
76966;SDS011;65904;52.278;20.972;2023-03-13T10:36:54;13.30;;;4.28;;
76966;SDS011;65904;52.278;20.972;2023-03-13T10:39:42;7.00;;;3.50;;
76966;SDS011;65904;52.278;20.972;2023-03-13T10:42:30;9.60;;;4.60;;
76966;SDS011;65904;52.278;20.972;2023-03-13T10:45:21;8.02;;;4.47;;
76966;SDS011;65904;52.278;20.972;2023-03-13T10:48:11;8.90;;;3.78;;
76966;SDS011;65904;52.278;20.972;2023-03-13T10:50:58;12.32;;;3.88;;
76966;SDS011;65904;52.278;20.972;2023-03-13T10:53:44;7.78;;;4.13;;
76966;SDS011;65904;52.278;20.972;2023-03-13T10:56:31;8.60;;;4.03;;
76966;SDS011;65904;52.278;20.972;2023-03-13T10:59:18;10.40;;;3.55;;
76966;SDS011;65904;52.278;20.972;2023-03-13T11:02:15;9.50;;;4.20;;
76966;SDS011;65904;52.278;20.972;2023-03-13T11:08:19;7.93;;;3.22;;
76966;SDS011;65904;52.278;20.972;2023-03-13T11:11:14;7.40;;;3.40;;
76966;SDS011;65904;52.278;20.972;2023-03-13T11:14:06;10.50;;;4.00;;
76966;SDS011;65904;52.278;20.972;2023-03-13T11:16:55;11.18;;;3.72;;
76966;SDS011;65904;52.278;20.972;2023-03-13T11:19:51;10.90;;;3.85;;
76966;SDS011;65904;52.278;20.972;2023-03-13T11:25:36;8.70;;;4.13;;
76966;SDS011;65904;52.278;20.972;2023-03-13T11:28:28;6.10;;;3.35;;
76966;SDS011;65904;52.278;20.972;2023-03-13T11:31:27;10.93;;;4.00;;
76966;SDS011;65904;52.278;20.972;2023-03-13T11:34:18;11.75;;;4.18;;
76966;SDS011;65904;52.278;20.972;2023-03-13T11:37:11;6.43;;;3.10;;
76966;SDS011;65904;52.278;20.972;2023-03-13T11:40:02;7.93;;;3.17;;
76966;SDS011;65904;52.278;20.972;2023-03-13T11:43:02;6.05;;;3.15;;
76966;SDS011;65904;52.278;20.972;2023-03-13T11:46:08;8.73;;;3.42;;
76966;SDS011;65904;52.278;20.972;2023-03-13T11:49:08;8.00;;;3.50;;
76966;SDS011;65904;52.278;20.972;2023-03-13T11:52:06;7.35;;;2.92;;
76966;SDS011;65904;52.278;20.972;2023-03-13T11:55:02;5.97;;;3.10;;
76966;SDS011;65904;52.278;20.972;2023-03-13T11:58:16;8.55;;;3.53;;
76966;SDS011;65904;52.278;20.972;2023-03-13T12:01:10;10.32;;;3.05;;
76966;SDS011;65904;52.278;20.972;2023-03-13T12:04:02;8.18;;;3.70;;
76966;SDS011;65904;52.278;20.972;2023-03-13T12:06:55;9.05;;;3.22;;
76966;SDS011;65904;52.278;20.972;2023-03-13T12:09:48;11.00;;;4.43;;
76966;SDS011;65904;52.278;20.972;2023-03-13T12:12:39;5.97;;;3.30;;
76966;SDS011;65904;52.278;20.972;2023-03-13T12:18:22;10.45;;;3.50;;
76966;SDS011;65904;52.278;20.972;2023-03-13T12:21:16;12.20;;;3.63;;
76966;SDS011;65904;52.278;20.972;2023-03-13T12:24:08;7.10;;;2.88;;
76966;SDS011;65904;52.278;20.972;2023-03-13T12:27:08;6.65;;;2.90;;
76966;SDS011;65904;52.278;20.972;2023-03-13T12:29:57;5.05;;;2.72;;
76966;SDS011;65904;52.278;20.972;2023-03-13T12:32:49;7.03;;;2.85;;
76966;SDS011;65904;52.278;20.972;2023-03-13T12:35:43;5.97;;;3.33;;
76966;SDS011;65904;52.278;20.972;2023-03-13T12:38:35;10.30;;;3.58;;
76966;SDS011;65904;52.278;20.972;2023-03-13T12:41:24;5.47;;;2.63;;
76966;SDS011;65904;52.278;20.972;2023-03-13T12:44:17;9.02;;;3.20;;
76966;SDS011;65904;52.278;20.972;2023-03-13T12:47:06;6.97;;;3.35;;
76966;SDS011;65904;52.278;20.972;2023-03-13T12:49:58;8.02;;;2.95;;
76966;SDS011;65904;52.278;20.972;2023-03-13T12:53:06;6.03;;;2.70;;
76966;SDS011;65904;52.278;20.972;2023-03-13T12:56:17;6.45;;;2.78;;
76966;SDS011;65904;52.278;20.972;2023-03-13T12:59:21;9.63;;;3.70;;
76966;SDS011;65904;52.278;20.972;2023-03-13T13:02:14;7.15;;;3.13;;
76966;SDS011;65904;52.278;20.972;2023-03-13T13:05:03;8.18;;;3.17;;
76966;SDS011;65904;52.278;20.972;2023-03-13T13:07:53;7.88;;;3.88;;
76966;SDS011;65904;52.278;20.972;2023-03-13T13:10:40;9.38;;;4.35;;
76966;SDS011;65904;52.278;20.972;2023-03-13T13:13:29;4.85;;;2.83;;
76966;SDS011;65904;52.278;20.972;2023-03-13T13:16:18;8.93;;;2.92;;
76966;SDS011;65904;52.278;20.972;2023-03-13T13:22:46;10.02;;;3.42;;
76966;SDS011;65904;52.278;20.972;2023-03-13T13:25:33;8.80;;;4.18;;
76966;SDS011;65904;52.278;20.972;2023-03-13T13:28:31;10.68;;;3.78;;
76966;SDS011;65904;52.278;20.972;2023-03-13T13:34:54;11.73;;;4.10;;
76966;SDS011;65904;52.278;20.972;2023-03-13T13:37:41;7.68;;;3.40;;
76966;SDS011;65904;52.278;20.972;2023-03-13T13:40:27;10.40;;;3.88;;
76966;SDS011;65904;52.278;20.972;2023-03-13T13:43:19;11.80;;;3.50;;
76966;SDS011;65904;52.278;20.972;2023-03-13T13:46:15;17.70;;;5.75;;
76966;SDS011;65904;52.278;20.972;2023-03-13T13:49:12;8.23;;;3.55;;
76966;SDS011;65904;52.278;20.972;2023-03-13T13:58:27;11.85;;;4.00;;
76966;SDS011;65904;52.278;20.972;2023-03-13T14:01:15;10.20;;;3.75;;
76966;SDS011;65904;52.278;20.972;2023-03-13T14:04:05;6.78;;;3.40;;
76966;SDS011;65904;52.278;20.972;2023-03-13T14:06:57;10.73;;;4.15;;
76966;SDS011;65904;52.278;20.972;2023-03-13T14:09:49;6.40;;;3.65;;
76966;SDS011;65904;52.278;20.972;2023-03-13T14:12:45;6.82;;;3.65;;
76966;SDS011;65904;52.278;20.972;2023-03-13T14:15:36;8.43;;;3.47;;
76966;SDS011;65904;52.278;20.972;2023-03-13T14:18:26;5.93;;;2.70;;
76966;SDS011;65904;52.278;20.972;2023-03-13T14:21:13;8.02;;;3.25;;
76966;SDS011;65904;52.278;20.972;2023-03-13T14:24:11;7.05;;;3.03;;
76966;SDS011;65904;52.278;20.972;2023-03-13T14:26:58;7.45;;;2.80;;
76966;SDS011;65904;52.278;20.972;2023-03-13T14:29:59;6.47;;;2.50;;
76966;SDS011;65904;52.278;20.972;2023-03-13T14:32:45;10.27;;;3.13;;
76966;SDS011;65904;52.278;20.972;2023-03-13T14:35:32;7.32;;;2.78;;
76966;SDS011;65904;52.278;20.972;2023-03-13T14:38:18;7.65;;;3.60;;
76966;SDS011;65904;52.278;20.972;2023-03-13T14:41:19;7.20;;;2.30;;
76966;SDS011;65904;52.278;20.972;2023-03-13T14:44:12;9.70;;;2.78;;
76966;SDS011;65904;52.278;20.972;2023-03-13T14:47:05;12.02;;;3.33;;
76966;SDS011;65904;52.278;20.972;2023-03-13T14:49:55;6.40;;;2.92;;
76966;SDS011;65904;52.278;20.972;2023-03-13T14:52:45;10.00;;;3.50;;
76966;SDS011;65904;52.278;20.972;2023-03-13T14:55:34;7.50;;;3.45;;
76966;SDS011;65904;52.278;20.972;2023-03-13T14:58:25;10.30;;;3.60;;
76966;SDS011;65904;52.278;20.972;2023-03-13T15:01:23;5.75;;;2.55;;
76966;SDS011;65904;52.278;20.972;2023-03-13T15:04:15;6.82;;;3.25;;
76966;SDS011;65904;52.278;20.972;2023-03-13T15:07:22;7.63;;;3.53;;
76966;SDS011;65904;52.278;20.972;2023-03-13T15:10:19;7.75;;;3.25;;
76966;SDS011;65904;52.278;20.972;2023-03-13T15:13:14;7.90;;;3.53;;
76966;SDS011;65904;52.278;20.972;2023-03-13T15:16:02;10.55;;;2.35;;
76966;SDS011;65904;52.278;20.972;2023-03-13T15:18:57;6.65;;;2.22;;
76966;SDS011;65904;52.278;20.972;2023-03-13T15:21:44;6.88;;;2.47;;
76966;SDS011;65904;52.278;20.972;2023-03-13T15:24:36;8.32;;;2.40;;
76966;SDS011;65904;52.278;20.972;2023-03-13T15:27:23;6.35;;;1.90;;
76966;SDS011;65904;52.278;20.972;2023-03-13T15:30:13;6.13;;;2.45;;
76966;SDS011;65904;52.278;20.972;2023-03-13T15:33:00;5.28;;;2.33;;
76966;SDS011;65904;52.278;20.972;2023-03-13T15:35:46;6.97;;;2.72;;
76966;SDS011;65904;52.278;20.972;2023-03-13T15:41:21;7.93;;;2.10;;
76966;SDS011;65904;52.278;20.972;2023-03-13T15:44:08;6.22;;;2.30;;
76966;SDS011;65904;52.278;20.972;2023-03-13T15:46:54;6.40;;;2.30;;
76966;SDS011;65904;52.278;20.972;2023-03-13T15:49:40;6.53;;;1.88;;
76966;SDS011;65904;52.278;20.972;2023-03-13T15:52:27;7.05;;;2.53;;
76966;SDS011;65904;52.278;20.972;2023-03-13T15:55:14;6.35;;;3.03;;
76966;SDS011;65904;52.278;20.972;2023-03-13T15:58:00;6.63;;;1.60;;
76966;SDS011;65904;52.278;20.972;2023-03-13T16:00:48;4.57;;;1.90;;
76966;SDS011;65904;52.278;20.972;2023-03-13T16:03:34;6.85;;;2.58;;
76966;SDS011;65904;52.278;20.972;2023-03-13T16:06:20;7.55;;;3.42;;
76966;SDS011;65904;52.278;20.972;2023-03-13T16:09:14;7.90;;;3.03;;
76966;SDS011;65904;52.278;20.972;2023-03-13T16:12:02;5.43;;;2.20;;
76966;SDS011;65904;52.278;20.972;2023-03-13T16:14:48;9.43;;;2.92;;
76966;SDS011;65904;52.278;20.972;2023-03-13T16:17:34;4.53;;;2.15;;
76966;SDS011;65904;52.278;20.972;2023-03-13T16:20:21;6.18;;;2.50;;
76966;SDS011;65904;52.278;20.972;2023-03-13T16:23:10;7.68;;;3.00;;
76966;SDS011;65904;52.278;20.972;2023-03-13T16:25:56;7.30;;;3.13;;
76966;SDS011;65904;52.278;20.972;2023-03-13T16:28:43;5.97;;;3.22;;
76966;SDS011;65904;52.278;20.972;2023-03-13T16:31:31;4.82;;;2.88;;
76966;SDS011;65904;52.278;20.972;2023-03-13T16:34:18;6.82;;;2.63;;
76966;SDS011;65904;52.278;20.972;2023-03-13T16:37:08;6.57;;;2.28;;
76966;SDS011;65904;52.278;20.972;2023-03-13T16:39:57;8.27;;;2.72;;
76966;SDS011;65904;52.278;20.972;2023-03-13T16:42:43;5.53;;;2.70;;
76966;SDS011;65904;52.278;20.972;2023-03-13T16:45:31;6.07;;;2.92;;
76966;SDS011;65904;52.278;20.972;2023-03-13T16:48:18;6.05;;;2.80;;
76966;SDS011;65904;52.278;20.972;2023-03-13T16:51:04;7.50;;;3.58;;
76966;SDS011;65904;52.278;20.972;2023-03-13T16:53:51;6.90;;;2.88;;
76966;SDS011;65904;52.278;20.972;2023-03-13T16:56:40;8.73;;;3.20;;
76966;SDS011;65904;52.278;20.972;2023-03-13T17:02:15;8.90;;;2.92;;
76966;SDS011;65904;52.278;20.972;2023-03-13T17:05:02;8.00;;;2.92;;
76966;SDS011;65904;52.278;20.972;2023-03-13T17:07:49;5.15;;;3.05;;
76966;SDS011;65904;52.278;20.972;2023-03-13T17:10:36;8.13;;;2.88;;
76966;SDS011;65904;52.278;20.972;2023-03-13T17:13:22;7.95;;;3.55;;
76966;SDS011;65904;52.278;20.972;2023-03-13T17:16:10;6.32;;;2.85;;
76966;SDS011;65904;52.278;20.972;2023-03-13T17:19:00;10.10;;;3.47;;
76966;SDS011;65904;52.278;20.972;2023-03-13T17:21:46;5.43;;;3.00;;
76966;SDS011;65904;52.278;20.972;2023-03-13T17:24:33;7.30;;;3.35;;
76966;SDS011;65904;52.278;20.972;2023-03-13T17:27:19;9.05;;;3.58;;
76966;SDS011;65904;52.278;20.972;2023-03-13T17:30:10;4.20;;;2.90;;
76966;SDS011;65904;52.278;20.972;2023-03-13T17:33:02;8.82;;;3.83;;
76966;SDS011;65904;52.278;20.972;2023-03-13T17:35:50;8.35;;;3.72;;
76966;SDS011;65904;52.278;20.972;2023-03-13T17:41:22;8.88;;;4.03;;
76966;SDS011;65904;52.278;20.972;2023-03-13T17:44:10;5.97;;;3.33;;
76966;SDS011;65904;52.278;20.972;2023-03-13T17:46:57;7.05;;;3.50;;
76966;SDS011;65904;52.278;20.972;2023-03-13T17:49:43;7.18;;;3.05;;
76966;SDS011;65904;52.278;20.972;2023-03-13T17:52:31;6.18;;;3.28;;
76966;SDS011;65904;52.278;20.972;2023-03-13T17:55:17;9.07;;;4.00;;
76966;SDS011;65904;52.278;20.972;2023-03-13T17:58:03;7.25;;;2.88;;
76966;SDS011;65904;52.278;20.972;2023-03-13T18:00:50;5.47;;;3.10;;
76966;SDS011;65904;52.278;20.972;2023-03-13T18:03:36;9.73;;;3.30;;